Time;durP1;ratioP1;P1;durP2;ratioP2;P2;SDS_P1;SDS_P2;PMS_P1;PMS_P2;Temp;Humidity;BMP_temperature;BMP_pressure;BME280_temperature;BME280_humidity;BME280_pressure;Samples;Min_cycle;Max_cycle;Signal;HPM_P1;HPM_P2
2021/12/26 00:00:46;;;;;;;12.98;6.82;;;4.00;99.90;;;;;;4989669;28;20049;-80
2021/12/26 00:03:12;;;;;;;12.95;7.47;;;5.60;99.90;;;;;;4989713;28;20048;-83
2021/12/26 00:05:38;;;;;;;10.95;7.18;;;3.90;99.90;;;;;;4986197;28;20547;-79
2021/12/26 00:08:04;;;;;;;12.40;7.18;;;3.90;99.90;;;;;;4986673;28;20484;-79
2021/12/26 00:10:30;;;;;;;12.45;7.10;;;3.90;99.90;;;;;;4995831;28;20034;-78
2021/12/26 00:12:57;;;;;;;11.35;7.10;;;3.90;99.90;;;;;;4997602;28;20057;-81
2021/12/26 00:15:24;;;;;;;12.50;7.70;;;3.80;99.90;;;;;;4991351;28;20034;-80
2021/12/26 00:17:50;;;;;;;12.30;7.38;;;3.90;99.90;;;;;;4982369;28;20094;-78
2021/12/26 00:20:17;;;;;;;12.25;7.47;;;4.00;99.90;;;;;;4989481;28;20121;-80
2021/12/26 00:22:43;;;;;;;10.43;6.20;;;3.90;99.90;;;;;;5000466;28;20026;-80
2021/12/26 00:25:10;;;;;;;10.73;6.93;;;4.00;99.90;;;;;;4981444;28;20026;-79
2021/12/26 00:27:37;;;;;;;11.65;7.20;;;4.10;99.90;;;;;;4985529;28;20071;-80
2021/12/26 00:30:08;;;;;;;10.05;6.65;;;4.10;99.90;;;;;;4986570;28;20047;-79
2021/12/26 00:32:34;;;;;;;11.20;6.78;;;4.10;99.90;;;;;;4988874;28;20122;-80
2021/12/26 00:35:00;;;;;;;10.88;7.25;;;4.10;99.90;;;;;;4986253;28;20467;-79
2021/12/26 00:37:25;;;;;;;10.35;6.53;;;4.10;99.90;;;;;;4979721;28;20999;-81
2021/12/26 00:39:51;;;;;;;10.18;6.35;;;4.00;99.90;;;;;;4988246;28;20076;-80
2021/12/26 00:42:17;;;;;;;11.65;7.13;;;4.00;99.90;;;;;;4985711;28;20058;-79
2021/12/26 00:44:42;;;;;;;12.02;7.07;;;4.00;99.90;;;;;;4990519;28;20026;-81
2021/12/26 00:47:10;;;;;;;11.75;7.63;;;3.90;99.90;;;;;;4986839;28;20030;-83
2021/12/26 00:49:35;;;;;;;11.60;7.22;;;4.00;99.90;;;;;;4985508;28;20030;-80
2021/12/26 00:52:02;;;;;;;12.80;7.63;;;4.00;99.90;;;;;;4986845;28;20121;-79
2021/12/26 00:54:27;;;;;;;10.57;7.40;;;3.90;99.90;;;;;;4988090;28;20048;-79
2021/12/26 00:56:53;;;;;;;11.82;7.07;;;3.90;99.90;;;;;;5000502;28;20034;-79
2021/12/26 00:59:19;;;;;;;12.05;7.25;;;3.90;99.90;;;;;;4981740;28;20503;-80
2021/12/26 01:01:45;;;;;;;13.98;7.80;;;4.10;99.90;;;;;;4985556;28;20030;-83
2021/12/26 01:04:12;;;;;;;11.10;6.75;;;4.00;99.90;;;;;;4988540;28;20026;-80
2021/12/26 01:06:37;;;;;;;11.18;7.32;;;4.00;99.90;;;;;;4980572;28;22675;-80
2021/12/26 01:09:08;;;;;;;11.60;7.32;;;4.00;99.90;;;;;;4988133;28;20515;-81
2021/12/26 01:11:37;;;;;;;11.93;6.28;;;3.90;99.90;;;;;;4988155;28;20027;-80
2021/12/26 01:14:12;;;;;;;12.45;7.30;;;4.00;99.90;;;;;;4989499;28;20442;-77
2021/12/26 01:16:38;;;;;;;11.35;6.43;;;4.00;99.90;;;;;;4984845;28;20061;-81
2021/12/26 01:19:11;;;;;;;13.05;7.10;;;4.10;99.90;;;;;;4984710;28;20114;-79
2021/12/26 01:21:37;;;;;;;18.25;8.90;;;4.00;99.90;;;;;;4989018;28;20034;-82
2021/12/26 01:24:06;;;;;;;15.23;9.25;;;3.90;99.90;;;;;;4993227;28;20113;-80
2021/12/26 01:26:33;;;;;;;14.50;8.02;;;3.90;99.90;;;;;;4994939;28;20050;-79
2021/12/26 01:29:00;;;;;;;13.88;8.45;;;3.80;99.90;;;;;;4986392;28;20057;-77
2021/12/26 01:31:25;;;;;;;13.35;7.70;;;3.80;99.90;;;;;;4990609;28;20050;-80
2021/12/26 01:33:58;;;;;;;12.35;7.22;;;3.80;99.90;;;;;;4996011;28;20064;-80
2021/12/26 01:36:25;;;;;;;12.38;7.70;;;3.80;99.90;;;;;;4988232;28;20038;-79
2021/12/26 01:38:51;;;;;;;14.48;8.73;;;3.90;99.90;;;;;;5005754;28;20030;-81
2021/12/26 01:41:18;;;;;;;12.57;7.65;;;3.90;99.90;;;;;;4991100;28;20570;-80
2021/12/26 01:43:47;;;;;;;14.68;8.73;;;3.80;99.90;;;;;;4995802;28;20057;-80
2021/12/26 01:46:14;;;;;;;14.07;8.48;;;3.80;99.90;;;;;;4995384;28;20030;-80
2021/12/26 01:48:40;;;;;;;15.02;8.45;;;3.90;99.90;;;;;;4991514;28;20662;-79
2021/12/26 01:51:06;;;;;;;14.80;9.10;;;3.80;99.90;;;;;;4990962;28;20031;-78
2021/12/26 01:53:39;;;;;;;13.18;8.18;;;3.80;99.90;;;;;;4994464;28;20029;-80
2021/12/26 01:56:09;;;;;;;13.50;8.35;;;3.80;99.90;;;;;;4981718;28;20484;-80
2021/12/26 01:58:36;;;;;;;13.43;8.10;;;4.60;99.90;;;;;;4992635;28;20273;-80
2021/12/26 02:01:06;;;;;;;15.27;8.68;;;3.70;99.90;;;;;;5005082;28;20096;-80
2021/12/26 02:03:33;;;;;;;12.43;6.97;;;3.70;99.90;;;;;;5003140;28;20034;-81
2021/12/26 02:05:58;;;;;;;12.60;7.90;;;3.70;99.90;;;;;;4988770;28;20030;-78
2021/12/26 02:08:24;;;;;;;13.38;8.38;;;3.70;99.90;;;;;;4991481;28;20054;-78
2021/12/26 02:10:50;;;;;;;11.57;7.25;;;3.80;99.90;;;;;;4989300;28;20034;-78
2021/12/26 02:13:16;;;;;;;13.30;8.48;;;3.80;99.90;;;;;;4986803;28;20035;-80
2021/12/26 02:15:42;;;;;;;13.02;7.90;;;3.70;99.90;;;;;;4992215;28;20053;-77
2021/12/26 02:18:09;;;;;;;15.88;8.35;;;3.70;99.90;;;;;;4986233;28;20062;-79
2021/12/26 02:23:25;;;;;;;14.82;8.48;;;3.70;99.90;;;;;;4989613;28;20114;-79
2021/12/26 02:28:23;;;;;;;14.30;8.38;;;3.70;99.90;;;;;;4989242;28;20037;-80
2021/12/26 02:30:50;;;;;;;19.05;10.13;;;3.70;99.90;;;;;;4983418;28;20031;-80
2021/12/26 02:33:18;;;;;;;18.10;10.32;;;3.70;99.90;;;;;;4986800;28;20069;-82
2021/12/26 02:35:44;;;;;;;19.10;9.90;;;3.70;99.90;;;;;;4999815;28;20031;-79
2021/12/26 02:38:12;;;;;;;16.23;9.18;;;3.80;99.90;;;;;;4981608;28;20062;-78
2021/12/26 02:40:38;;;;;;;16.05;9.85;;;3.80;99.90;;;;;;5002626;28;20442;-76
2021/12/26 02:43:05;;;;;;;19.45;9.77;;;3.80;99.90;;;;;;4994970;28;20030;-78
2021/12/26 02:45:31;;;;;;;14.77;8.63;;;3.80;99.90;;;;;;4992936;28;20506;-80
2021/12/26 02:47:57;;;;;;;15.70;9.18;;;3.80;99.90;;;;;;4995123;28;20031;-81
2021/12/26 02:50:27;;;;;;;17.65;9.43;;;3.80;99.90;;;;;;4992799;28;20518;-83
2021/12/26 02:52:53;;;;;;;16.75;9.80;;;3.80;99.90;;;;;;4994887;28;20046;-78
2021/12/26 02:55:21;;;;;;;14.32;8.48;;;3.80;99.90;;;;;;4986569;28;20022;-81
2021/12/26 02:57:49;;;;;;;13.18;7.82;;;3.80;99.90;;;;;;4991776;28;20042;-79
2021/12/26 03:00:17;;;;;;;16.58;9.35;;;3.80;99.90;;;;;;4988451;28;20080;-81
2021/12/26 03:02:46;;;;;;;15.02;9.07;;;3.80;99.90;;;;;;4987341;28;20030;-79
2021/12/26 03:05:16;;;;;;;15.18;8.82;;;3.80;99.90;;;;;;4993650;28;20089;-80
2021/12/26 03:07:41;;;;;;;14.43;8.45;;;3.90;99.90;;;;;;4988388;28;20034;-79
2021/12/26 03:10:11;;;;;;;14.65;9.02;;;3.80;99.90;;;;;;4993692;28;20037;-80
2021/12/26 03:12:41;;;;;;;14.23;7.88;;;3.80;99.90;;;;;;4988520;28;20184;-79
2021/12/26 03:15:10;;;;;;;13.73;7.93;;;3.80;99.90;;;;;;4992648;28;20015;-80
2021/12/26 03:17:36;;;;;;;14.73;8.52;;;3.80;99.90;;;;;;4991001;28;20038;-78
2021/12/26 03:20:06;;;;;;;14.45;8.13;;;3.80;99.90;;;;;;5009368;28;20031;-80
2021/12/26 03:22:31;;;;;;;13.38;8.43;;;3.80;99.90;;;;;;4990131;28;20034;-79
2021/12/26 03:24:57;;;;;;;14.98;8.70;;;3.80;99.90;;;;;;4994839;28;20035;-79
2021/12/26 03:27:22;;;;;;;15.18;8.15;;;3.80;99.90;;;;;;5001686;28;20034;-83
2021/12/26 03:29:48;;;;;;;16.85;8.68;;;3.80;99.90;;;;;;5007740;28;20019;-83
2021/12/26 03:32:14;;;;;;;21.38;9.80;;;3.80;99.90;;;;;;5007133;28;20039;-88
2021/12/26 03:34:50;;;;;;;15.15;9.02;;;3.80;99.90;;;;;;5020432;28;20040;-80
2021/12/26 03:37:17;;;;;;;16.83;9.45;;;3.80;99.90;;;;;;4995619;28;20042;-80
2021/12/26 03:39:42;;;;;;;17.02;9.15;;;3.80;99.90;;;;;;4986944;28;22115;-82
2021/12/26 03:42:09;;;;;;;15.73;8.05;;;3.80;99.90;;;;;;4984532;28;20061;-81
2021/12/26 03:44:35;;;;;;;14.77;8.52;;;3.90;99.90;;;;;;4995619;28;20070;-78
2021/12/26 03:47:00;;;;;;;14.73;8.63;;;3.80;99.90;;;;;;4985030;28;20030;-78
2021/12/26 03:49:27;;;;;;;15.95;9.23;;;3.80;99.90;;;;;;4987386;28;20061;-80
2021/12/26 03:51:53;;;;;;;15.32;8.60;;;3.80;99.90;;;;;;4989020;28;20043;-79
2021/12/26 03:54:18;;;;;;;16.00;8.73;;;3.80;99.90;;;;;;4990725;28;20091;-78
2021/12/26 03:56:44;;;;;;;14.90;8.30;;;3.80;99.90;;;;;;4983266;28;20476;-79
2021/12/26 03:59:10;;;;;;;16.48;8.70;;;3.80;99.90;;;;;;4991989;28;20029;-80
2021/12/26 04:01:35;;;;;;;14.40;7.78;;;3.80;99.90;;;;;;4988967;28;20034;-77
2021/12/26 04:04:01;;;;;;;14.00;8.35;;;3.80;99.90;;;;;;4986868;28;20038;-80
2021/12/26 04:06:27;;;;;;;14.32;7.88;;;3.80;99.90;;;;;;4988502;28;20388;-80
2021/12/26 04:08:53;;;;;;;15.10;8.48;;;3.90;99.90;;;;;;4987656;28;20034;-79
2021/12/26 04:11:18;;;;;;;13.70;8.02;;;3.80;99.90;;;;;;4996859;28;20041;-79
2021/12/26 04:13:44;;;;;;;15.38;8.60;;;3.80;99.90;;;;;;4986587;28;20097;-78
2021/12/26 04:16:10;;;;;;;13.13;7.53;;;3.80;99.90;;;;;;4988908;28;20162;-79
2021/12/26 04:18:35;;;;;;;14.07;7.90;;;3.90;99.90;;;;;;4984272;28;20053;-79
2021/12/26 04:21:02;;;;;;;15.88;8.07;;;3.80;99.90;;;;;;4991495;28;20098;-79
2021/12/26 04:23:27;;;;;;;12.65;6.85;;;4.00;99.90;;;;;;4988820;28;20138;-80
2021/12/26 04:25:53;;;;;;;11.90;6.90;;;3.80;99.90;;;;;;4986222;28;20054;-78
2021/12/26 04:28:19;;;;;;;13.35;7.50;;;3.80;99.90;;;;;;4987527;28;20038;-79
2021/12/26 04:30:47;;;;;;;14.02;7.68;;;3.80;99.90;;;;;;4988344;28;20447;-79
2021/12/26 04:33:13;;;;;;;13.75;7.15;;;3.80;99.90;;;;;;4990017;28;20022;-80
2021/12/26 04:35:38;;;;;;;12.63;7.30;;;3.80;99.90;;;;;;4988676;28;20035;-80
2021/12/26 04:38:04;;;;;;;14.45;7.18;;;3.80;99.90;;;;;;4989982;28;20735;-77
2021/12/26 04:40:30;;;;;;;10.65;6.35;;;3.80;99.90;;;;;;4993464;28;20395;-78
2021/12/26 04:42:56;;;;;;;13.40;6.97;;;3.80;99.90;;;;;;4990165;28;20023;-78
2021/12/26 04:45:22;;;;;;;11.70;6.47;;;3.80;99.90;;;;;;4995712;28;20476;-79
2021/12/26 04:47:49;;;;;;;11.00;6.22;;;3.90;99.90;;;;;;5003798;28;20042;-79
2021/12/26 04:50:20;;;;;;;10.98;6.85;;;3.80;99.90;;;;;;4992389;28;20500;-79
2021/12/26 04:52:46;;;;;;;11.80;6.70;;;3.80;99.90;;;;;;4993688;28;20037;-80
2021/12/26 04:55:14;;;;;;;12.98;7.15;;;3.80;99.90;;;;;;4991476;28;20120;-75
2021/12/26 04:57:40;;;;;;;11.35;6.60;;;3.80;99.90;;;;;;4989053;28;20079;-81
2021/12/26 05:00:11;;;;;;;12.60;6.68;;;3.70;99.90;;;;;;4986998;28;20038;-76
2021/12/26 05:02:37;;;;;;;14.00;7.78;;;3.80;99.90;;;;;;4992476;28;20113;-78
2021/12/26 05:05:04;;;;;;;12.02;6.85;;;3.70;99.90;;;;;;4987628;28;20038;-81
2021/12/26 05:07:30;;;;;;;10.80;6.28;;;3.70;99.90;;;;;;4986930;28;20030;-80
2021/12/26 05:09:55;;;;;;;11.98;7.18;;;3.70;99.90;;;;;;4994124;28;20053;-80
2021/12/26 05:12:23;;;;;;;12.02;6.85;;;3.80;99.90;;;;;;4999810;28;20026;-81
2021/12/26 05:14:50;;;;;;;11.80;6.28;;;3.70;99.90;;;;;;4989581;28;20072;-81
2021/12/26 05:17:15;;;;;;;12.88;6.40;;;3.80;99.90;;;;;;4990971;28;20030;-81
2021/12/26 05:19:41;;;;;;;12.75;6.80;;;3.70;99.90;;;;;;4986000;28;20149;-77
2021/12/26 05:22:07;;;;;;;10.93;6.50;;;3.70;99.90;;;;;;4986260;28;20548;-80
2021/12/26 05:24:32;;;;;;;11.75;7.15;;;3.70;99.90;;;;;;4986062;28;20033;-79
2021/12/26 05:26:58;;;;;;;10.32;6.10;;;3.70;99.90;;;;;;4991890;28;20118;-78
2021/12/26 05:29:23;;;;;;;10.75;6.03;;;3.70;99.90;;;;;;5004403;28;20030;-80
2021/12/26 05:31:49;;;;;;;12.77;7.32;;;3.70;99.90;;;;;;4985912;28;20920;-82
2021/12/26 05:34:14;;;;;;;10.73;6.38;;;3.80;99.90;;;;;;4989192;28;20034;-79
2021/12/26 05:36:40;;;;;;;12.45;6.28;;;3.80;99.90;;;;;;4990715;28;20368;-81
2021/12/26 05:39:06;;;;;;;11.25;6.82;;;3.80;99.90;;;;;;4985490;28;20029;-80
2021/12/26 05:41:33;;;;;;;13.77;6.53;;;3.80;99.90;;;;;;4993705;28;20134;-76
2021/12/26 05:43:59;;;;;;;10.35;6.05;;;3.70;99.90;;;;;;4990419;28;20042;-84
2021/12/26 05:46:24;;;;;;;10.48;6.57;;;3.70;99.90;;;;;;4981502;28;20477;-79
2021/12/26 05:48:50;;;;;;;11.43;6.60;;;3.70;99.90;;;;;;4989785;28;20049;-79
2021/12/26 05:51:16;;;;;;;11.95;6.95;;;3.70;99.90;;;;;;4988942;28;20043;-80
2021/12/26 05:53:42;;;;;;;10.13;5.82;;;3.80;99.90;;;;;;4993116;28;20038;-77
2021/12/26 05:56:08;;;;;;;10.80;6.50;;;3.70;99.90;;;;;;4992986;28;20117;-82
2021/12/26 05:58:34;;;;;;;13.50;6.47;;;3.70;99.90;;;;;;4997414;28;20035;-83
2021/12/26 06:01:00;;;;;;;10.80;5.82;;;3.70;99.90;;;;;;4991163;28;20038;-81
2021/12/26 06:03:26;;;;;;;10.63;5.80;;;3.70;99.90;;;;;;4995047;28;20484;-80
2021/12/26 06:05:52;;;;;;;9.95;5.82;;;3.60;99.90;;;;;;4994371;28;20030;-77
2021/12/26 06:08:17;;;;;;;11.60;5.45;;;3.70;99.90;;;;;;4999358;28;20101;-78
2021/12/26 06:10:43;;;;;;;10.98;5.68;;;3.70;99.90;;;;;;4998088;28;20038;-79
2021/12/26 06:13:09;;;;;;;9.85;5.45;;;3.70;99.90;;;;;;4997937;28;20045;-80
2021/12/26 06:15:35;;;;;;;10.90;6.25;;;3.70;99.90;;;;;;4990317;28;20066;-78
2021/12/26 06:18:01;;;;;;;10.05;5.38;;;3.70;99.90;;;;;;4993923;28;20034;-79
2021/12/26 06:20:27;;;;;;;9.73;5.47;;;3.80;99.90;;;;;;4998435;28;20026;-81
2021/12/26 06:22:52;;;;;;;9.52;5.35;;;3.80;99.90;;;;;;4997785;28;20419;-77
2021/12/26 06:25:18;;;;;;;10.45;5.57;;;3.80;99.90;;;;;;4994701;28;20023;-79
2021/12/26 06:27:44;;;;;;;10.30;5.53;;;3.80;99.90;;;;;;4993178;28;20038;-79
2021/12/26 06:30:11;;;;;;;7.75;5.07;;;3.80;99.90;;;;;;5011969;28;21066;-84
2021/12/26 06:32:37;;;;;;;8.77;5.18;;;3.80;99.90;;;;;;5019308;28;20090;-76
2021/12/26 06:35:04;;;;;;;9.60;5.75;;;3.80;99.90;;;;;;5017964;28;20060;-85
2021/12/26 06:37:30;;;;;;;9.25;5.30;;;3.80;99.90;;;;;;5005448;28;20027;-77
2021/12/26 06:39:59;;;;;;;9.20;5.18;;;3.80;99.90;;;;;;4994135;28;20019;-79
2021/12/26 06:42:25;;;;;;;7.88;5.10;;;3.80;99.90;;;;;;4990619;28;20026;-79
2021/12/26 06:44:50;;;;;;;8.23;4.97;;;3.90;99.90;;;;;;4985294;28;20031;-78
2021/12/26 06:47:17;;;;;;;8.60;4.95;;;3.80;99.90;;;;;;4985697;28;20034;-78
2021/12/26 06:49:43;;;;;;;10.15;5.55;;;3.90;99.90;;;;;;4989711;28;20037;-78
2021/12/26 06:52:09;;;;;;;8.77;5.20;;;3.80;99.90;;;;;;4989110;28;20484;-78
2021/12/26 06:54:36;;;;;;;8.68;4.50;;;3.90;99.90;;;;;;4993778;28;20034;-80
2021/12/26 06:57:03;;;;;;;10.27;5.28;;;3.90;99.90;;;;;;4993206;28;20492;-78
2021/12/26 06:59:28;;;;;;;10.05;5.20;;;3.90;99.90;;;;;;4993181;28;20034;-78
2021/12/26 07:01:54;;;;;;;7.57;4.97;;;3.90;99.90;;;;;;4997630;28;20121;-78
2021/12/26 07:04:20;;;;;;;9.27;4.93;;;3.80;99.90;;;;;;4993404;28;20027;-78
2021/12/26 07:06:46;;;;;;;8.82;4.95;;;3.70;99.90;;;;;;4998247;28;20142;-79
2021/12/26 07:09:11;;;;;;;9.15;5.55;;;3.30;99.90;;;;;;4991932;28;20030;-79
2021/12/26 07:11:37;;;;;;;9.32;5.15;;;3.70;99.90;;;;;;4994769;28;20136;-79
2021/12/26 07:14:02;;;;;;;9.15;5.32;;;4.20;99.90;;;;;;4993351;28;20038;-78
2021/12/26 07:16:28;;;;;;;8.68;5.18;;;3.70;99.90;;;;;;4993255;28;20042;-79
2021/12/26 07:18:54;;;;;;;8.13;4.45;;;3.80;99.90;;;;;;4993082;28;20446;-78
2021/12/26 07:21:19;;;;;;;7.20;4.57;;;3.80;99.90;;;;;;4991103;28;20048;-81
2021/12/26 07:23:45;;;;;;;9.07;4.68;;;3.80;99.90;;;;;;4999913;28;20523;-79
2021/12/26 07:26:11;;;;;;;8.10;4.82;;;3.80;99.90;;;;;;4992186;28;20062;-79
2021/12/26 07:28:36;;;;;;;7.10;4.60;;;3.80;99.90;;;;;;4981108;28;20506;-80
2021/12/26 07:31:02;;;;;;;7.43;4.65;;;3.80;99.90;;;;;;4987987;28;20019;-81
2021/12/26 07:33:28;;;;;;;7.70;4.25;;;3.80;99.90;;;;;;4992794;28;20030;-81
2021/12/26 07:35:54;;;;;;;7.57;4.43;;;3.80;99.90;;;;;;4992914;28;20035;-78
2021/12/26 07:38:19;;;;;;;7.78;4.18;;;3.80;99.90;;;;;;4992508;28;20069;-79
2021/12/26 07:40:48;;;;;;;8.18;4.45;;;3.90;99.90;;;;;;4989111;28;20038;-79
2021/12/26 07:43:14;;;;;;;8.32;4.53;;;3.90;99.90;;;;;;4986730;28;20040;-78
2021/12/26 07:45:41;;;;;;;7.65;4.18;;;3.90;99.90;;;;;;4994300;28;20038;-78
2021/12/26 07:48:07;;;;;;;6.70;4.10;;;3.80;99.90;;;;;;4980050;28;20483;-79
2021/12/26 07:50:33;;;;;;;7.18;4.10;;;3.90;99.90;;;;;;4988870;28;20130;-79
2021/12/26 07:53:04;;;;;;;7.38;4.30;;;3.90;99.90;;;;;;4988266;28;20403;-79
2021/12/26 07:55:30;;;;;;;6.60;4.07;;;4.00;99.90;;;;;;5003319;28;20041;-77
2021/12/26 07:57:56;;;;;;;7.35;3.95;;;4.00;99.90;;;;;;4988996;28;20031;-80
2021/12/26 08:00:21;;;;;;;7.70;4.00;;;4.00;99.90;;;;;;4994010;28;20066;-81
2021/12/26 08:02:47;;;;;;;7.72;4.47;;;3.90;99.90;;;;;;4987665;28;20443;-79
2021/12/26 08:05:15;;;;;;;7.68;4.85;;;3.90;99.90;;;;;;4985074;28;20033;-86
2021/12/26 08:07:40;;;;;;;7.32;4.30;;;3.90;99.90;;;;;;4990532;28;20120;-78
2021/12/26 08:10:07;;;;;;;6.47;4.22;;;3.90;99.90;;;;;;4989746;28;20030;-79
2021/12/26 08:12:32;;;;;;;6.70;4.00;;;4.00;99.90;;;;;;4989336;28;20034;-79
2021/12/26 08:15:01;;;;;;;6.80;4.10;;;4.00;99.90;;;;;;4987651;28;20034;-80
2021/12/26 08:17:27;;;;;;;8.27;4.95;;;4.00;99.90;;;;;;4985804;28;20030;-80
2021/12/26 08:19:52;;;;;;;8.98;4.93;;;4.00;99.90;;;;;;4987040;28;20026;-83
2021/12/26 08:22:18;;;;;;;8.00;4.68;;;5.00;99.90;;;;;;4985323;28;20032;-81
2021/12/26 08:24:44;;;;;;;8.10;4.85;;;4.00;99.90;;;;;;4992228;28;20491;-81
2021/12/26 08:27:09;;;;;;;8.00;4.70;;;3.90;99.90;;;;;;4981898;28;20049;-79
2021/12/26 08:29:35;;;;;;;7.32;4.60;;;3.90;99.90;;;;;;4990351;28;20030;-83
2021/12/26 08:32:01;;;;;;;7.40;4.47;;;3.90;99.90;;;;;;4987016;28;20567;-82
2021/12/26 08:34:27;;;;;;;10.15;4.43;;;3.90;99.90;;;;;;4991719;28;20034;-79
2021/12/26 08:37:02;;;;;;;9.68;5.47;;;3.90;99.90;;;;;;4991703;28;20034;-81
2021/12/26 08:39:38;;;;;;;8.57;5.05;;;3.90;99.90;;;;;;4990252;28;20273;-80
2021/12/26 08:42:05;;;;;;;6.93;4.38;;;3.90;99.90;;;;;;4993988;28;20023;-80
2021/12/26 08:44:31;;;;;;;7.88;4.65;;;4.00;99.90;;;;;;4992779;28;20233;-82
2021/12/26 08:46:56;;;;;;;7.90;4.68;;;3.90;99.90;;;;;;4996686;28;20042;-84
2021/12/26 08:49:22;;;;;;;8.50;4.75;;;3.90;99.90;;;;;;4989758;28;20967;-80
2021/12/26 08:51:49;;;;;;;9.23;5.28;;;3.90;99.90;;;;;;4993364;28;20065;-79
2021/12/26 08:54:14;;;;;;;8.05;4.60;;;4.00;99.90;;;;;;4992692;28;20042;-82
2021/12/26 08:56:40;;;;;;;7.47;4.53;;;3.90;99.90;;;;;;4988261;28;20036;-79
2021/12/26 08:59:07;;;;;;;7.82;4.20;;;4.00;99.90;;;;;;5003349;28;20428;-79
2021/12/26 09:01:32;;;;;;;8.18;5.10;;;4.00;99.90;;;;;;4986674;28;20531;-78
2021/12/26 09:03:58;;;;;;;9.65;5.55;;;3.60;99.90;;;;;;4991411;28;20053;-80
2021/12/26 09:06:25;;;;;;;7.93;4.65;;;4.70;99.90;;;;;;4995309;28;20036;-83
2021/12/26 09:08:50;;;;;;;8.32;5.15;;;3.90;99.90;;;;;;4989282;28;20018;-81
2021/12/26 09:11:17;;;;;;;9.85;5.40;;;3.90;99.90;;;;;;4985854;28;20069;-82
2021/12/26 09:13:43;;;;;;;7.38;4.13;;;3.90;99.90;;;;;;4986643;28;20022;-81
2021/12/26 09:16:10;;;;;;;10.35;5.05;;;4.00;99.90;;;;;;4984215;28;20317;-81
2021/12/26 09:18:35;;;;;;;8.90;4.40;;;4.00;99.90;;;;;;4998538;28;20452;-83
2021/12/26 09:21:01;;;;;;;8.48;4.82;;;4.00;99.90;;;;;;4986545;28;20070;-80
2021/12/26 09:23:26;;;;;;;8.38;4.63;;;4.00;99.90;;;;;;4986780;28;20447;-81
2021/12/26 09:25:52;;;;;;;7.25;4.57;;;4.00;99.90;;;;;;4987838;28;20053;-82
2021/12/26 09:28:18;;;;;;;8.30;4.97;;;4.10;99.90;;;;;;4989544;28;20030;-80
2021/12/26 09:30:47;;;;;;;7.72;4.82;;;5.90;99.90;;;;;;4985520;28;20030;-83
2021/12/26 09:33:19;;;;;;;8.43;4.60;;;4.10;99.90;;;;;;4993558;28;20022;-80
2021/12/26 09:35:56;;;;;;;7.47;4.18;;;4.10;99.90;;;;;;4993335;28;20090;-82
2021/12/26 09:38:23;;;;;;;9.48;4.72;;;4.20;99.90;;;;;;5000851;28;20038;-82
2021/12/26 09:40:48;;;;;;;8.93;5.00;;;4.20;99.90;;;;;;4993513;28;20124;-79
2021/12/26 09:43:14;;;;;;;8.60;4.35;;;3.80;99.90;;;;;;5011979;28;20018;-89
2021/12/26 09:48:12;;;;;;;7.80;4.50;;;4.20;99.90;;;;;;4952186;23;20564;-85
2021/12/26 09:50:38;;;;;;;7.82;4.68;;;4.30;99.90;;;;;;4951342;28;20241;-83
2021/12/26 09:53:04;;;;;;;7.80;4.60;;;4.30;99.90;;;;;;4949926;28;20319;-82
2021/12/26 09:55:30;;;;;;;8.02;4.35;;;4.30;99.90;;;;;;4944439;28;20044;-82
2021/12/26 09:57:56;;;;;;;8.10;4.80;;;4.40;99.90;;;;;;4932702;28;20036;-84
2021/12/26 10:00:29;;;;;;;8.15;4.22;;;4.30;99.90;;;;;;4941211;28;20059;-84
2021/12/26 10:03:14;;;;;;;7.55;4.32;;;4.30;99.90;;;;;;4943291;28;20031;-82
2021/12/26 10:06:06;;;;;;;7.97;4.30;;;4.30;99.90;;;;;;4922306;28;20024;-81
2021/12/26 10:08:34;;;;;;;7.65;4.90;;;4.40;99.90;;;;;;4905376;28;20120;-83
2021/12/26 10:11:09;;;;;;;9.52;4.90;;;4.30;99.90;;;;;;4913271;28;20028;-82
2021/12/26 10:13:50;;;;;;;7.78;4.65;;;4.30;99.90;;;;;;4931124;28;20061;-82
2021/12/26 10:16:17;;;;;;;;;;;4.30;99.90;;;;;;4918940;28;20076;-82
2021/12/26 10:18:43;;;;;;;7.93;4.72;;;4.30;99.90;;;;;;4909821;28;19911;-80
2021/12/26 10:21:27;;;;;;;9.38;5.15;;;4.70;99.90;;;;;;4926203;28;20057;-80
2021/12/26 10:23:57;;;;;;;7.57;4.63;;;4.40;99.90;;;;;;4913626;28;20028;-82
2021/12/26 10:26:26;;;;;;;8.90;5.43;;;4.40;99.90;;;;;;4929146;28;20032;-81
2021/12/26 10:29:09;;;;;;;10.23;5.85;;;4.50;99.90;;;;;;4930974;28;20119;-82
2021/12/26 10:31:42;;;;;;;8.95;5.47;;;4.50;99.90;;;;;;4913334;28;20040;-83
2021/12/26 10:34:15;;;;;;;8.95;5.20;;;4.60;99.90;;;;;;4911518;28;20082;-83
2021/12/26 10:36:49;;;;;;;9.38;5.05;;;4.60;99.90;;;;;;4921074;28;20059;-83
2021/12/26 10:39:20;;;;;;;9.80;5.63;;;4.60;99.90;;;;;;4911274;28;20036;-85
2021/12/26 10:41:49;;;;;;;9.57;5.85;;;4.60;99.90;;;;;;4910427;28;20024;-83
2021/12/26 10:44:21;;;;;;;10.27;5.75;;;4.70;99.90;;;;;;4927902;28;20024;-83
2021/12/26 10:46:49;;;;;;;12.27;6.50;;;4.70;99.90;;;;;;4909296;28;20482;-83
2021/12/26 10:49:22;;;;;;;8.82;5.25;;;4.80;99.90;;;;;;4916662;28;20427;-84
2021/12/26 10:51:49;;;;;;;9.18;5.38;;;5.40;99.90;;;;;;4927041;28;20103;-82
2021/12/26 10:54:19;;;;;;;11.50;5.10;;;4.80;99.90;;;;;;4891323;28;20119;-81
2021/12/26 10:59:22;;;;;;;10.05;6.03;;;4.90;99.90;;;;;;4958580;28;20041;-83
2021/12/26 11:01:50;;;;;;;12.02;6.88;;;4.90;99.90;;;;;;4966843;28;20089;-84
2021/12/26 11:04:17;;;;;;;10.68;6.30;;;4.90;99.90;;;;;;4960399;28;20027;-86
2021/12/26 11:07:08;;;;;;;13.02;6.90;;;4.90;99.90;;;;;;4952738;28;20027;-87
2021/12/26 11:09:35;;;;;;;10.77;6.38;;;4.80;99.90;;;;;;4962677;28;20043;-85
2021/12/26 11:12:08;;;;;;;11.25;5.90;;;4.80;99.90;;;;;;4948869;28;20039;-86
2021/12/26 11:15:01;;;;;;;9.95;5.70;;;4.80;99.90;;;;;;4956041;28;20103;-88
2021/12/26 11:17:37;;;;;;;13.45;6.30;;;4.80;99.90;;;;;;4951930;28;20027;-86
2021/12/26 11:20:05;;;;;;;11.30;5.80;;;4.80;99.90;;;;;;4947757;28;20468;-83
2021/12/26 11:22:30;;;;;;;12.20;6.45;;;4.80;99.90;;;;;;4951762;28;20414;-86
2021/12/26 11:24:59;;;;;;;12.07;6.93;;;5.70;99.90;;;;;;4967128;28;20023;-83
2021/12/26 11:27:26;;;;;;;14.23;6.88;;;4.80;99.90;;;;;;4942425;28;20049;-86
2021/12/26 11:29:53;;;;;;;14.35;7.15;;;;;;;;;;4949221;28;20077;-85
2021/12/26 11:32:21;;;;;;;12.23;6.97;;;4.90;99.90;;;;;;4949720;28;20495;-85
2021/12/26 11:34:48;;;;;;;14.13;6.85;;;5.00;99.90;;;;;;4955412;28;20036;-86
2021/12/26 11:37:15;;;;;;;14.05;7.47;;;4.80;99.90;;;;;;4948696;28;20040;-87
2021/12/26 11:39:43;;;;;;;16.23;8.20;;;4.80;99.90;;;;;;4946539;28;20799;-85
2021/12/26 11:42:33;;;;;;;13.77;7.35;;;4.80;99.90;;;;;;4947391;29;20038;-87
2021/12/26 11:45:13;;;;;;;15.00;8.50;;;4.80;99.90;;;;;;4948908;28;20042;-85
2021/12/26 11:48:19;;;;;;;13.80;7.28;;;4.80;99.90;;;;;;4953918;28;20027;-86
2021/12/26 11:50:57;;;;;;;15.43;8.00;;;4.80;99.90;;;;;;4947423;28;20036;-86
2021/12/26 11:53:35;;;;;;;16.67;8.52;;;4.90;99.90;;;;;;4949355;28;20507;-84
2021/12/26 11:56:23;;;;;;;14.70;7.75;;;4.80;99.90;;;;;;5024448;28;20043;-86
2021/12/26 11:59:07;;;;;;;16.08;8.10;;;4.80;99.90;;;;;;4980720;28;20033;-87
2021/12/26 12:01:35;;;;;;;16.80;7.85;;;4.80;99.90;;;;;;4943476;28;20133;-84
2021/12/26 12:04:17;;;;;;;16.35;8.25;;;4.80;99.90;;;;;;4950721;28;20039;-87
2021/12/26 12:06:46;;;;;;;15.73;8.07;;;4.80;99.90;;;;;;4952202;28;20294;-85
2021/12/26 12:09:29;;;;;;;18.63;9.00;;;4.80;99.90;;;;;;4939831;28;20114;-86
2021/12/26 12:12:14;;;;;;;17.38;8.73;;;4.90;99.90;;;;;;4945602;28;20066;-88
2021/12/26 12:14:57;;;;;;;14.75;8.02;;;4.80;99.90;;;;;;4943180;28;20035;-85
2021/12/26 12:17:29;;;;;;;18.48;8.70;;;4.80;99.90;;;;;;4947944;28;20027;-84
2021/12/26 12:20:15;;;;;;;16.30;8.80;;;4.80;99.90;;;;;;4951391;28;20518;-87
2021/12/26 12:23:08;;;;;;;15.88;8.48;;;4.80;99.90;;;;;;4937331;28;20027;-87
2021/12/26 12:25:34;;;;;;;17.15;8.57;;;4.80;99.90;;;;;;4943653;28;20087;-87
2021/12/26 12:28:16;;;;;;;17.33;8.63;;;4.90;99.90;;;;;;4950964;28;20097;-87
2021/12/26 12:30:45;;;;;;;17.65;9.07;;;4.80;99.90;;;;;;4954779;28;20032;-86
2021/12/26 12:33:22;;;;;;;17.75;9.15;;;4.90;99.90;;;;;;4943826;28;20476;-90
2021/12/26 12:35:48;;;;;;;16.38;8.95;;;5.60;99.90;;;;;;4948164;28;20023;-87
2021/12/26 12:38:30;;;;;;;18.50;9.90;;;4.70;99.90;;;;;;4945967;28;20038;-86
2021/12/26 12:40:56;;;;;;;16.98;9.07;;;4.70;99.90;;;;;;4949438;28;20084;-87
2021/12/26 12:43:24;;;;;;;21.73;9.73;;;4.80;99.90;;;;;;4946077;28;20027;-86
2021/12/26 12:45:57;;;;;;;17.30;8.63;;;5.90;99.90;;;;;;4952536;28;20038;-85
2021/12/26 12:48:27;;;;;;;19.77;9.52;;;4.70;99.90;;;;;;4970242;28;20407;-86
2021/12/26 12:51:03;;;;;;;18.20;9.05;;;5.80;99.90;;;;;;4949842;28;20040;-84
2021/12/26 12:53:49;;;;;;;15.35;8.48;;;4.70;99.90;;;;;;4951556;29;20045;-85
2021/12/26 12:56:44;;;;;;;18.73;9.00;;;4.70;99.90;;;;;;4950436;28;20031;-83
2021/12/26 12:59:12;;;;;;;18.05;8.40;;;4.80;99.90;;;;;;4959727;28;20035;-88
2021/12/26 13:01:42;;;;;;;21.27;8.98;;;6.80;99.90;;;;;;4954501;28;20046;-89
2021/12/26 13:04:09;;;;;;;21.77;10.75;;;4.70;99.90;;;;;;4950065;28;20038;-84
2021/12/26 13:06:35;;;;;;;18.88;8.38;;;;;;;;;;4941007;28;20055;-84